Buen Pasto, Argentina
Current Conditions -  °F | °C
As of 9:00 AM on Thursday 30 Oct 2014 (Local Time) from SAVC Reporting Station
Broken Clouds Broken Clouds  
Wind Chill:   Ceiling: 20000
Heat Index:   Visibility: 6mi
Dew Point: -6°   Wind: 18mph
Humidity: 39%   Direction: 270°W
Pressure: 29.41"   Gusts: NA
Location:  45.08°S, 69.47°W
Report Text: SAVC 301200Z 27016KT 9999 FEW040TCU SCT070BKN200 07/M06 Q0996
Loading
Personal Weather Stations






























Interactive Weather Map
Tropical Storm Tracking
New forecast layout! Learn more

10-Day Weather Forecast

Advertisements
Track Severe Weather on mobile